Latest Weather Observations for Nhill Aerodrome

IDV60801

Issued at 3:32 pm EDT Thursday 30 March 2017 (issued every 30 minutes, with the page automatically refreshed every 10 minutes)

About weather observations | Map of weather stations | Latest weather observations for VIC | Other Formats
Station Details ID: 078015 Name: NHILL AERODROME Lat: -36.31 Lon: 141.65 Height: 138.9 m
Data from the previous 72 hours. | See also: Recent months at Nhill Aerodrome
Date/Time
EDT
Temp
°C
App
Temp
°C
Dew
Point
°C
Rel
Hum
%
Delta-T
°C
Wind Press
QNH
hPa
Press
MSL
hPa
Rain since
9am
mm
Dir  Spd
km/h
Gust
km/h
Spd
kts
Gust
kts
30/03:30pm 18.0 11.1 4.6 41 6.4 SSW 30 39 16 21 1020.2 1019.9 0.2
30/03:00pm 16.0 7.7 5.9 51 4.9 SSW 39 50 21 27 1020.2 1019.9 0.2
30/02:53pm 16.7 10.0 5.6 48 5.4 SSW 30 48 16 26 1020.1 1019.8 0.2
30/02:30pm 18.2 11.3 4.4 40 6.6 SW 30 41 16 22 1020.2 1019.9 0.0
30/02:00pm 17.2 11.7 4.2 42 6.1 SSW 22 32 12 17 1020.3 1020.0 0.0
30/01:30pm 16.6 10.3 3.7 42 6.0 SSW 26 41 14 22 1020.3 1020.0 0.0
30/01:00pm 16.7 9.6 3.7 42 6.0 SSW 30 37 16 20 1020.7 1020.3 0.0
30/12:30pm 16.9 10.5 5.2 46 5.6 SW 28 39 15 21 1020.5 1020.2 0.0
30/12:00pm 16.1 8.7 4.8 47 5.4 SSW 33 44 18 24 1020.8 1020.4 0.0
30/11:30am 15.0 8.2 5.0 51 4.7 SSW 30 39 16 21 1020.5 1020.2 0.0
30/11:00am 15.5 9.4 6.8 56 4.3 SW 28 39 15 21 1020.2 1019.9 0.0
30/10:30am 13.8 8.9 6.9 63 3.4 SSW 22 35 12 19 1020.1 1019.8 0.0
30/10:00am 12.8 8.5 7.9 72 2.4 SW 20 28 11 15 1020.4 1020.1 0.0
30/09:30am 10.7 6.7 6.8 77 1.9 SW 17 24 9 13 1020.1 1019.8 0.0
30/09:00am 8.8 5.8 6.1 83 1.2 WSW 11 15 6 8 1019.8 1019.5 0.2
30/08:30am 7.4 5.0 5.4 87 0.9 WSW 7 11 4 6 1019.2 1018.9 0.2
30/08:00am 6.5 3.6 4.5 87 0.9 W 9 13 5 7 1018.6 1018.3 0.2
30/07:30am 6.6 3.3 4.8 88 0.8 WSW 11 15 6 8 1018.3 1017.9 0.2
30/07:00am 6.3 3.4 4.5 88 0.8 SW 9 11 5 6 1017.8 1017.4 0.2
30/06:30am 6.6 4.3 4.6 87 0.9 NW 6 7 3 4 1017.5 1017.1 0.2
30/06:00am 6.9 4.1 5.1 88 0.8 NW 9 11 5 6 1017.1 1016.7 0.2
30/05:30am 7.1 4.7 5.1 87 0.9 W 7 9 4 5 1016.7 1016.3 0.2
30/05:00am 7.4 5.0 5.4 87 0.9 W 7 9 4 5 1016.2 1015.8 0.2
30/04:30am 7.8 4.4 5.8 87 0.9 WSW 13 17 7 9 1015.8 1015.4 0.2
30/04:00am 7.7 4.3 5.7 87 0.9 WSW 13 15 7 8 1015.6 1015.2 0.2
30/03:30am 8.1 4.7 5.7 85 1.1 WSW 13 15 7 8 1015.6 1015.2 0.2
30/03:00am 8.4 5.1 6.2 86 1.0 WSW 13 15 7 8 1015.4 1015.0 0.2
30/02:30am 8.5 5.2 6.5 87 0.9 SW 13 13 7 7 1015.4 1015.0 0.2
30/02:00am 9.0 6.3 7.5 90 0.7 WSW 11 13 6 7 1015.3 1014.9 0.2
30/01:30am 9.6 6.6 7.9 89 0.8 WSW 13 15 7 8 1015.1 1014.7 0.2
30/01:00am 10.2 7.0 8.5 89 0.8 WSW 15 19 8 10 1015.0 1014.6 0.2
30/12:30am 10.6 7.5 8.9 89 0.8 WSW 15 19 8 10 1015.0 1014.6 0.2
30/12:00am 10.4 7.6 8.5 88 0.9 W 13 17 7 9 1014.8 1014.4 0.2
 
Date/Time
EDT
Temp
°C
App
Temp
°C
Dew
Point
°C
Rel
Hum
%
Delta-T
°C
Wind Press
QNH
hPa
Press
MSL
hPa
Rain since
9am
mm
Dir  Spd
km/h
Gust
km/h
Spd
kts
Gust
kts
29/11:30pm 10.7 7.9 8.6 87 1.0 W 13 15 7 8 1014.8 1014.4 0.2
29/11:00pm 10.8 8.4 8.6 86 1.1 W 11 15 6 8 1014.6 1014.2 0.2
29/10:30pm 11.0 8.3 8.8 86 1.1 W 13 15 7 8 1014.2 1013.8 0.2
29/10:00pm 11.2 8.5 8.9 86 1.2 WSW 13 15 7 8 1013.5 1013.1 0.2
29/09:30pm 11.2 8.5 8.8 85 1.2 SW 13 17 7 9 1013.3 1012.9 0.2
29/09:00pm 11.3 8.2 9.0 86 1.2 SW 15 19 8 10 1012.6 1012.3 0.2
29/08:30pm 11.2 6.7 8.6 84 1.3 SSW 22 26 12 14 1012.1 1011.7 0.2
29/08:00pm 11.4 7.0 8.8 84 1.3 SW 22 28 12 15 1012.1 1011.7 0.2
29/07:30pm 11.2 6.5 9.1 87 1.1 SSW 24 35 13 19 1011.5 1011.1 0.2
29/07:00pm 12.2 5.6 9.9 86 1.2 SW 35 44 19 24 1011.2 1010.8 0.0
29/06:30pm 12.9 4.5 9.5 80 1.7 SW 44 57 24 31 1010.7 1010.3 0.0
29/06:00pm 15.1 6.6 10.5 74 2.4 SSW 46 65 25 35 1009.9 1009.5 0.0
29/05:39pm 15.9 7.3 10.4 70 2.9 SW 46 65 25 35 1009.1 1008.7 0.0
29/05:30pm 16.5 7.3 10.8 69 3.1 SW 50 65 27 35 1008.7 1008.3 0.0
29/05:29pm 16.7 7.5 10.8 68 3.2 SW 50 65 27 35 1008.7 1008.3 0.0
29/05:09pm 19.6 11.7 12.6 64 4.0 WSW 46 65 25 35 1007.8 1007.4 0.0
29/05:02pm 20.1 12.5 11.8 59 4.6 W 43 59 23 32 1007.5 1007.1 0.0
29/05:00pm 22.1 14.5 10.6 48 6.4 WNW 41 59 22 32 1007.3 1006.9 0.0
29/04:50pm 23.1 16.2 8.8 40 7.7 WNW 35 54 19 29 1007.0 1006.6 0.0
29/04:30pm 23.4 16.5 8.7 39 7.9 WNW 35 48 19 26 1006.9 1006.5 0.0
29/04:00pm 24.2 17.3 9.0 38 8.3 WNW 35 50 19 27 1006.9 1006.5 0.0
29/03:30pm 24.7 18.3 9.4 38 8.4 WNW 33 52 18 28 1007.1 1006.7 0.0
29/03:04pm 23.9 17.3 8.7 38 8.2 WNW 33 54 18 29 1007.4 1007.0 0.0
29/03:00pm 23.6 17.5 9.6 41 7.7 WNW 32 46 17 25 1007.5 1007.1 0.0
29/02:36pm 23.6 17.3 9.6 41 7.7 WNW 33 54 18 29 1007.7 1007.3 0.0
29/02:30pm 23.2 17.1 9.6 42 7.4 WNW 32 44 17 24 1007.7 1007.3 0.0
29/02:15pm 24.4 18.2 9.9 40 8.0 WNW 33 56 18 30 1007.8 1007.4 0.0
29/02:00pm 23.7 17.8 10.4 43 7.4 WNW 32 43 17 23 1008.2 1007.8 0.0
29/01:30pm 22.9 17.2 9.7 43 7.2 WNW 30 41 16 22 1008.8 1008.4 0.0
29/01:00pm 22.4 16.3 9.6 44 7.0 NW 32 43 17 23 1009.0 1008.6 0.0
29/12:30pm 21.6 16.1 10.4 49 6.1 NW 30 48 16 26 1009.6 1009.2 0.0
29/12:29pm 21.8 16.3 10.6 49 6.2 NW 30 48 16 26 1009.6 1009.2 0.0
29/12:00pm 21.6 16.7 11.3 52 5.8 NW 28 41 15 22 1010.0 1009.6 0.0
29/11:30am 20.9 16.8 11.5 55 5.2 NW 24 39 13 21 1010.3 1009.9 0.0
29/11:00am 19.8 15.7 11.6 59 4.6 NW 24 35 13 19 1010.5 1010.1 0.0
29/10:30am 18.9 15.6 11.7 63 4.0 NW 20 28 11 15 1010.7 1010.3 0.0
29/10:00am 17.5 14.3 11.3 67 3.4 NNW 19 26 10 14 1010.6 1010.2 0.0
29/09:30am 16.1 13.7 11.3 73 2.6 NNW 15 20 8 11 1010.6 1010.2 0.0
29/09:00am 14.1 12.0 11.3 83 1.5 NNW 13 20 7 11 1010.6 1010.2 0.0
29/08:30am 12.2 10.6 10.3 88 1.0 NW 9 13 5 7 1010.4 1010.0 0.0
29/08:00am 12.6 11.1 10.7 88 1.0 NNW 9 13 5 7 1010.2 1009.8 0.0
29/07:30am 12.9 11.1 10.8 87 1.1 NNW 11 13 6 7 1009.9 1009.5 0.0
29/07:00am 12.7 11.2 10.4 86 1.2 NNW 9 13 5 7 1009.9 1009.5 0.0
29/06:30am 12.3 10.6 9.9 85 1.2 N 9 11 5 6 1010.1 1009.7 0.0
29/06:00am 12.2 10.8 9.4 83 1.4 NNW 7 11 4 6 1010.2 1009.8 0.0
29/05:30am 12.0 10.1 9.2 83 1.4 NNW 9 11 5 6 1010.2 1009.8 0.0
29/05:00am 10.9 9.1 8.0 82 1.4 N 7 9 4 5 1010.2 1009.8 0.0
29/04:30am 10.9 9.0 7.4 79 1.7 NNW 7 9 4 5 1010.6 1010.2 0.0
29/04:00am 11.5 9.8 8.2 80 1.6 NNW 7 9 4 5 1010.8 1010.4 0.0
29/03:30am 11.7 10.0 8.4 80 1.6 NNW 7 9 4 5 1011.2 1010.8 0.0
29/03:00am 11.8 10.0 8.1 78 1.8 S 7 9 4 5 1011.2 1010.8 0.0
29/02:30am 11.9 11.5 8.2 78 1.8 CALM 0 0 0 0 1011.6 1011.2 0.0
29/02:00am 12.7 11.2 8.6 76 2.1 S 6 7 3 4 1011.7 1011.3 0.0
29/01:30am 12.8 12.4 8.3 74 2.2 CALM 0 0 0 0 1011.9 1011.5 0.0
29/01:00am 13.2 11.8 8.7 74 2.3 S 6 6 3 3 1012.2 1011.8 0.0
29/12:30am 13.5 11.9 8.6 72 2.5 S 7 7 4 4 1012.3 1012.0 0.0
29/12:00am 13.5 11.8 8.4 71 2.6 S 7 7 4 4 1012.5 1012.2 0.0
 
Date/Time
EDT
Temp
°C
App
Temp
°C
Dew
Point
°C
Rel
Hum
%
Delta-T
°C
Wind Press
QNH
hPa
Press
MSL
hPa
Rain since
9am
mm
Dir  Spd
km/h
Gust
km/h
Spd
kts
Gust
kts
28/11:30pm 13.9 11.8 8.3 69 2.8 S 9 11 5 6 1012.6 1012.3 0.0
28/11:00pm 14.8 13.2 8.7 67 3.1 SSW 7 9 4 5 1012.8 1012.5 0.0
28/10:30pm 14.9 12.8 8.4 65 3.3 SSW 9 11 5 6 1012.9 1012.6 0.0
28/10:00pm 15.9 13.9 8.6 62 3.7 SSW 9 13 5 7 1012.8 1012.5 0.0
28/09:30pm 16.2 14.1 8.4 60 4.0 SW 9 13 5 7 1012.7 1012.4 0.0
28/09:00pm 17.7 15.5 8.0 53 5.0 WSW 9 13 5 7 1012.6 1012.3 0.0
28/08:30pm 18.8 16.2 7.9 49 5.6 WSW 11 13 6 7 1012.3 1012.0 0.0
28/08:00pm 20.0 16.7 8.0 46 6.2 WSW 15 19 8 10 1012.0 1011.6 0.0
28/07:30pm 21.2 18.2 7.8 42 7.0 W 13 17 7 9 1011.9 1011.5 0.0
28/07:00pm 22.8 18.6 7.4 37 8.1 W 19 24 10 13 1012.0 1011.6 0.0
28/06:30pm 23.5 18.7 7.2 35 8.5 W 22 32 12 17 1011.9 1011.5 0.0
28/06:00pm 23.9 19.1 7.5 35 8.7 W 22 33 12 18 1011.9 1011.5 0.0
28/05:30pm 23.8 19.1 7.8 36 8.5 WNW 22 33 12 18 1011.8 1011.4 0.0
28/05:00pm 23.9 19.0 8.3 37 8.4 W 24 33 13 18 1012.0 1011.6 0.0
28/04:30pm 23.9 19.0 8.3 37 8.3 WNW 24 33 13 18 1012.2 1011.8 0.0
28/04:00pm 24.0 19.8 8.4 37 8.4 WSW 20 30 11 16 1012.5 1012.2 0.0
28/03:30pm 23.4 18.0 7.9 37 8.2 W 26 41 14 22 1012.7 1012.4 0.0
28/03:00pm 22.7 18.1 8.0 39 7.8 W 22 33 12 18 1013.0 1012.7 0.0
28/02:30pm 22.9 18.9 9.0 41 7.5 W 20 33 11 18 1013.5 1013.1 0.0
28/02:00pm 22.8 18.0 8.9 41 7.5 W 24 35 13 19 1013.9 1013.5 0.0
28/01:30pm 22.9 18.1 9.0 41 7.5 W 24 33 13 18 1014.4 1014.0 0.0
28/01:00pm 21.9 18.3 9.8 46 6.6 WSW 19 26 10 14 1014.7 1014.3 0.0
28/12:30pm 21.0 17.5 10.2 50 5.9 WNW 19 28 10 15 1015.1 1014.7 0.0
28/12:00pm 20.4 16.2 9.9 51 5.7 W 22 33 12 18 1015.4 1015.0 0.0
28/11:30am 19.6 16.1 10.3 55 5.0 W 19 28 10 15 1015.4 1015.0 0.0
28/11:00am 18.2 14.7 10.8 62 4.0 W 20 26 11 14 1015.7 1015.3 0.0
28/10:30am 17.7 15.7 11.5 67 3.4 NW 13 17 7 9 1015.5 1015.1 0.0
28/10:00am 16.1 14.9 11.5 74 2.5 NW 9 13 5 7 1015.8 1015.4 0.0
28/09:30am 14.3 12.6 11.3 82 1.6 NW 11 13 6 7 1015.8 1015.4 0.0
28/09:00am 12.5 11.1 10.9 90 0.8 NNW 9 11 5 6 1015.5 1015.1 0.6
28/08:30am 11.0 9.3 9.8 92 0.6 NNW 9 11 5 6 1015.4 1015.0 0.6
28/08:00am 9.7 8.6 8.3 91 0.7 WNW 4 6 2 3 1015.0 1014.6 0.6
28/07:30am 9.6 8.0 8.0 90 0.8 WNW 6 7 3 4 1015.0 1014.6 0.6
28/07:00am 10.8 10.6 9.2 90 0.8 CALM 0 0 0 0 1015.0 1014.6 0.6
28/06:30am 9.4 7.5 7.5 88 0.9 WSW 7 7 4 4 1014.7 1014.3 0.6
28/06:00am 10.6 10.4 8.9 89 0.8 CALM 0 0 0 0 1014.6 1014.2 0.6
28/05:30am 10.6 10.2 8.4 86 1.1 CALM 0 0 0 0 1014.7 1014.3 0.6
28/05:00am 11.5 10.2 9.1 85 1.2 NNW 6 9 3 5 1015.1 1014.7 0.6
28/04:30am 11.1 9.5 8.7 85 1.2 NNW 7 9 4 5 1015.2 1014.8 0.6
28/04:00am 10.9 8.8 8.3 84 1.3 NNW 9 11 5 6 1015.4 1015.0 0.6
28/03:30am 11.1 9.1 8.5 84 1.3 NNW 9 11 5 6 1015.7 1015.3 0.6
28/03:00am 11.0 8.9 8.2 83 1.4 NNW 9 11 5 6 1015.6 1015.2 0.6
28/02:30am 11.0 8.8 7.9 81 1.5 NNW 9 11 5 6 1015.7 1015.3 0.6
28/02:00am 11.4 9.2 7.9 79 1.7 NNW 9 11 5 6 1015.6 1015.2 0.6
28/01:30am 11.9 9.8 8.4 79 1.7 NNW 9 9 5 5 1015.5 1015.1 0.6
28/01:00am 12.2 10.5 8.5 78 1.8 NW 7 9 4 5 1015.4 1015.0 0.6
28/12:30am 13.0 11.4 8.9 76 2.1 W 7 9 4 5 1015.4 1015.0 0.6
28/12:00am 12.7 11.9 8.2 74 2.2 W 2 6 1 3 1015.3 1014.9 0.6
 
Date/Time
EDT
Temp
°C
App
Temp
°C
Dew
Point
°C
Rel
Hum
%
Delta-T
°C
Wind Press
QNH
hPa
Press
MSL
hPa
Rain since
9am
mm
Dir  Spd
km/h
Gust
km/h
Spd
kts
Gust
kts
27/11:30pm 13.7 11.8 9.0 73 2.4 W 9 9 5 5 1015.2 1014.8 0.6
27/11:00pm 14.1 11.4 8.9 71 2.6 WSW 13 15 7 8 1015.5 1015.1 0.6
27/10:30pm 14.4 11.7 8.8 69 2.9 WSW 13 15 7 8 1015.2 1014.8 0.6
27/10:00pm 14.9 12.2 8.8 67 3.1 W 13 13 7 7 1015.2 1014.8 0.6
27/09:30pm 15.9 12.9 9.1 64 3.5 W 15 17 8 9 1015.2 1014.8 0.6
27/09:00pm 16.6 13.5 8.8 60 4.0 WSW 15 17 8 9 1014.6 1014.2 0.6
27/08:30pm 17.5 13.4 8.6 56 4.6 WSW 20 26 11 14 1014.2 1013.8 0.6
27/08:00pm 18.2 13.6 8.2 52 5.2 WSW 22 32 12 17 1013.9 1013.5 0.6
27/07:30pm 19.3 13.4 7.7 47 6.0 WSW 28 35 15 19 1013.6 1013.2 0.6
27/07:00pm 20.4 13.6 7.1 42 6.8 WSW 32 41 17 22 1013.2 1012.8 0.6
27/06:30pm 21.8 15.1 7.2 39 7.6 WSW 32 43 17 23 1012.4 1012.1 0.6
27/06:00pm 22.5 15.4 6.3 35 8.3 W 33 48 18 26 1012.1 1011.7 0.6
27/05:30pm 23.4 16.1 7.1 35 8.5 W 35 48 19 26 1012.0 1011.6 0.4
27/05:00pm 23.6 16.9 8.1 37 8.3 WSW 33 43 18 23 1011.9 1011.5 0.4
27/04:30pm 23.5 14.9 6.7 34 8.7 WSW 41 52 22 28 1011.7 1011.3 0.4
27/04:00pm 22.9 15.1 8.2 39 7.8 WSW 39 54 21 29 1011.7 1011.3 0.4

Other Formats:

Comma delimited format used in spreadsheet applications
http://www.bom.gov.au/fwo/IDV60801/IDV60801.94827.axf

JavaScript Object Notation format (JSON) in row-major order
http://www.bom.gov.au/fwo/IDV60801/IDV60801.94827.json